Time;durP1;ratioP1;P1;durP2;ratioP2;P2;SDS_P1;SDS_P2;PMS_P1;PMS_P2;Temp;Humidity;BMP_temperature;BMP_pressure;BME280_temperature;BME280_humidity;BME280_pressure;Samples;Min_cycle;Max_cycle;Signal;HPM_P1;HPM_P2
2022/05/18 00:02:00;;;;;;;10.10;3.35;;;;;;;;;;5048908;28;20021;-56
2022/05/18 00:04:27;;;;;;;9.15;3.22;;;;;;;;;;5060591;28;20032;-58
2022/05/18 00:06:53;;;;;;;9.05;2.83;;;;;;;;;;5048686;28;20039;-57
2022/05/18 00:09:19;;;;;;;6.43;2.40;;;;;;;;;;5060685;28;20016;-58
2022/05/18 00:11:45;;;;;;;8.07;3.33;;;;;;;;;;5056383;28;20036;-57
2022/05/18 00:14:11;;;;;;;11.00;2.97;;;;;;;;;;5066947;28;20672;-57
2022/05/18 00:16:37;;;;;;;10.88;3.42;;;;;;;;;;5050567;28;20020;-56
2022/05/18 00:19:03;;;;;;;8.65;2.95;;;;;;;;;;5037471;28;20751;-57
2022/05/18 00:21:31;;;;;;;6.78;3.22;;;;;;;;;;5053084;28;20140;-57
2022/05/18 00:23:58;;;;;;;11.70;3.17;;;;;;;;;;5052456;28;20032;-57
2022/05/18 00:26:25;;;;;;;10.32;2.97;;;;;;;;;;5055248;28;20147;-56
2022/05/18 00:28:51;;;;;;;8.60;2.85;;;;;;;;;;5054248;28;20133;-58
2022/05/18 00:31:18;;;;;;;7.13;2.63;;;;;;;;;;5057669;28;20108;-56
2022/05/18 00:33:44;;;;;;;8.88;3.17;;;;;;;;;;5048586;28;20056;-57
2022/05/18 00:36:10;;;;;;;7.00;2.90;;;;;;;;;;5059227;28;20029;-57
2022/05/18 00:38:36;;;;;;;8.95;2.75;;;;;;;;;;5049159;28;20210;-58
2022/05/18 00:41:02;;;;;;;8.30;3.22;;;;;;;;;;5067421;28;20179;-58
2022/05/18 00:43:31;;;;;;;11.07;3.63;;;;;;;;;;5067353;28;20805;-57
2022/05/18 00:46:03;;;;;;;7.43;3.17;;;;;;;;;;5055531;28;20095;-56
2022/05/18 00:48:30;;;;;;;8.30;2.88;;;;;;;;;;5067822;28;20094;-57
2022/05/18 00:50:57;;;;;;;6.93;2.90;;;;;;;;;;5055155;28;20109;-56
2022/05/18 00:53:25;;;;;;;7.18;2.95;;;;;;;;;;5060529;28;20541;-58
2022/05/18 00:55:55;;;;;;;7.97;3.05;;;;;;;;;;5059699;28;20111;-58
2022/05/18 00:58:30;;;;;;;7.50;3.25;;;;;;;;;;5048251;28;20136;-58
2022/05/18 01:00:56;;;;;;;7.25;2.55;;;;;;;;;;5059192;28;20128;-57
2022/05/18 01:03:32;;;;;;;7.80;3.03;;;;;;;;;;5059097;28;20036;-57
2022/05/18 01:06:07;;;;;;;6.88;2.45;;;;;;;;;;5057947;28;20021;-57
2022/05/18 01:08:36;;;;;;;8.63;3.00;;;;;;;;;;5070339;28;20410;-58
2022/05/18 01:11:02;;;;;;;9.35;2.65;;;;;;;;;;5061966;28;20594;-57
2022/05/18 01:13:28;;;;;;;8.43;3.00;;;;;;;;;;5068741;28;20112;-57
2022/05/18 01:15:55;;;;;;;9.15;3.10;;;;;;;;;;5067584;28;20020;-57
2022/05/18 01:18:22;;;;;;;6.05;2.53;;;;;;;;;;5056630;28;20399;-57
2022/05/18 01:20:48;;;;;;;8.52;2.78;;;;;;;;;;5055882;28;20029;-56
2022/05/18 01:23:50;;;;;;;5.63;2.72;;;;;;;;;;5057892;28;20639;-56
2022/05/18 01:26:18;;;;;;;6.35;3.17;;;;;;;;;;4988985;28;20034;-56
2022/05/18 01:28:56;;;;;;;6.32;3.10;;;;;;;;;;5054642;28;20028;-58
2022/05/18 01:31:40;;;;;;;10.25;3.20;;;;;;;;;;5065629;28;20086;-57
2022/05/18 01:34:06;;;;;;;6.20;2.70;;;;;;;;;;5067856;28;20079;-54
2022/05/18 01:36:32;;;;;;;6.90;3.05;;;;;;;;;;5063900;28;20447;-52
2022/05/18 01:38:59;;;;;;;6.43;2.65;;;;;;;;;;5065050;28;20761;-54
2022/05/18 01:41:27;;;;;;;4.85;2.75;;;;;;;;;;5068173;28;20487;-52
2022/05/18 01:43:59;;;;;;;6.72;2.58;;;;;;;;;;5063413;28;20025;-56
2022/05/18 01:46:27;;;;;;;7.30;2.85;;;;;;;;;;5068207;28;20033;-54
2022/05/18 01:48:54;;;;;;;6.07;2.63;;;;;;;;;;5060805;28;20511;-57
2022/05/18 01:51:22;;;;;;;7.35;3.35;;;;;;;;;;5068076;28;20142;-59
2022/05/18 01:53:49;;;;;;;7.60;2.83;;;;;;;;;;5062159;28;20060;-57
2022/05/18 01:56:15;;;;;;;6.40;3.03;;;;;;;;;;5053097;28;20043;-58
2022/05/18 01:58:41;;;;;;;6.90;2.83;;;;;;;;;;5064678;28;20094;-57
2022/05/18 02:01:07;;;;;;;6.68;2.58;;;;;;;;;;5050826;28;20028;-58
2022/05/18 02:03:33;;;;;;;6.72;3.10;;;;;;;;;;5054520;28;20440;-58
2022/05/18 02:05:59;;;;;;;4.95;2.70;;;;;;;;;;5060677;28;20029;-57
2022/05/18 02:08:25;;;;;;;7.25;2.97;;;;;;;;;;5057740;28;20129;-58
2022/05/18 02:10:51;;;;;;;5.72;2.58;;;;;;;;;;5070866;28;20107;-56
2022/05/18 02:13:17;;;;;;;6.07;2.83;;;;;;;;;;5059044;28;20120;-58
2022/05/18 02:15:43;;;;;;;6.05;3.10;;;;;;;;;;5069440;28;20352;-55
2022/05/18 02:18:10;;;;;;;6.00;2.83;;;;;;;;;;5060594;28;20037;-55
2022/05/18 02:20:36;;;;;;;7.53;3.20;;;;;;;;;;5065878;28;20028;-58
2022/05/18 02:23:03;;;;;;;7.32;2.90;;;;;;;;;;5064042;28;20033;-56
2022/05/18 02:25:30;;;;;;;7.45;2.72;;;;;;;;;;5063981;28;20834;-58
2022/05/18 02:27:57;;;;;;;10.68;3.05;;;;;;;;;;5066010;28;20060;-56
2022/05/18 02:30:23;;;;;;;8.05;3.00;;;;;;;;;;5061430;28;20395;-56
2022/05/18 02:32:49;;;;;;;6.32;2.80;;;;;;;;;;5065990;28;20024;-57
2022/05/18 02:35:15;;;;;;;4.13;2.17;;;;;;;;;;5069715;28;20525;-57
2022/05/18 02:37:41;;;;;;;6.03;2.22;;;;;;;;;;5068172;28;20037;-57
2022/05/18 02:40:08;;;;;;;6.60;3.08;;;;;;;;;;5065267;28;20025;-56
2022/05/18 02:42:34;;;;;;;6.50;2.35;;;;;;;;;;5069921;28;20792;-57
2022/05/18 02:45:00;;;;;;;11.70;3.38;;;;;;;;;;5065651;28;20028;-58
2022/05/18 02:47:26;;;;;;;6.55;2.70;;;;;;;;;;5050063;28;20127;-56
2022/05/18 02:49:52;;;;;;;9.45;2.88;;;;;;;;;;5062411;28;20036;-57
2022/05/18 02:52:20;;;;;;;8.57;2.20;;;;;;;;;;5049791;28;20040;-57
2022/05/18 02:57:31;;;;;;;5.32;2.60;;;;;;;;;;5049826;28;20136;-56
2022/05/18 02:59:58;;;;;;;5.45;2.40;;;;;;;;;;5061264;28;20115;-52
2022/05/18 03:02:24;;;;;;;4.75;2.78;;;;;;;;;;5051239;28;20035;-58
2022/05/18 03:04:50;;;;;;;5.00;2.30;;;;;;;;;;5058940;28;20111;-57
2022/05/18 03:07:16;;;;;;;5.78;3.00;;;;;;;;;;5052588;28;20044;-58
2022/05/18 03:09:42;;;;;;;6.13;2.97;;;;;;;;;;5058858;28;20153;-59
2022/05/18 03:12:08;;;;;;;5.88;2.95;;;;;;;;;;5054778;28;20044;-59
2022/05/18 03:14:34;;;;;;;6.90;2.90;;;;;;;;;;5053634;28;20028;-59
2022/05/18 03:17:01;;;;;;;4.93;2.60;;;;;;;;;;5061028;28;20111;-57
2022/05/18 03:19:27;;;;;;;5.22;2.85;;;;;;;;;;5067112;28;20108;-59
2022/05/18 03:24:37;;;;;;;11.65;3.00;;;;;;;;;;5067082;28;20486;-59
2022/05/18 03:27:04;;;;;;;6.13;2.80;;;;;;;;;;5059510;28;20364;-58
2022/05/18 03:29:30;;;;;;;6.97;2.70;;;;;;;;;;5067047;28;20527;-58
2022/05/18 03:31:56;;;;;;;7.05;2.58;;;;;;;;;;5057370;28;20115;-58
2022/05/18 03:34:22;;;;;;;5.57;2.45;;;;;;;;;;5067586;28;20307;-59
2022/05/18 03:36:48;;;;;;;6.60;2.85;;;;;;;;;;5064172;28;20029;-59
2022/05/18 03:39:15;;;;;;;4.72;2.67;;;;;;;;;;5049189;28;20869;-59
2022/05/18 03:41:41;;;;;;;4.53;2.35;;;;;;;;;;5063813;28;20123;-59
2022/05/18 03:44:08;;;;;;;5.03;2.20;;;;;;;;;;5069022;28;20047;-59
2022/05/18 03:46:34;;;;;;;6.10;2.33;;;;;;;;;;5066955;28;20281;-58
2022/05/18 03:49:00;;;;;;;5.45;3.05;;;;;;;;;;5056957;28;20037;-60
2022/05/18 03:51:27;;;;;;;7.95;3.35;;;;;;;;;;5058716;28;20064;-58
2022/05/18 03:53:53;;;;;;;5.45;2.60;;;;;;;;;;5066522;28;20091;-58
2022/05/18 03:56:19;;;;;;;5.85;2.45;;;;;;;;;;5066309;28;20035;-59
2022/05/18 03:58:45;;;;;;;6.10;2.65;;;;;;;;;;5068472;28;20119;-57
2022/05/18 04:01:11;;;;;;;7.22;2.53;;;;;;;;;;5065124;28;20032;-57
2022/05/18 04:03:42;;;;;;;7.07;2.53;;;;;;;;;;5065410;28;20111;-56
2022/05/18 04:06:09;;;;;;;6.50;2.90;;;;;;;;;;5065820;28;20028;-57
2022/05/18 04:08:35;;;;;;;8.48;3.05;;;;;;;;;;5058805;28;20028;-57
2022/05/18 04:11:01;;;;;;;7.75;2.20;;;;;;;;;;5067121;28;20021;-57
2022/05/18 04:13:28;;;;;;;5.80;2.80;;;;;;;;;;5057270;28;20105;-59
2022/05/18 04:15:54;;;;;;;4.60;2.35;;;;;;;;;;5066313;28;20033;-58
2022/05/18 04:18:22;;;;;;;7.80;2.90;;;;;;;;;;5058733;28;20045;-58
2022/05/18 04:20:48;;;;;;;5.38;2.58;;;;;;;;;;5048295;28;20503;-57
2022/05/18 04:23:14;;;;;;;5.13;2.55;;;;;;;;;;5063722;28;20139;-58
2022/05/18 04:25:41;;;;;;;6.30;3.05;;;;;;;;;;5067750;28;20101;-58
2022/05/18 04:28:07;;;;;;;8.63;2.80;;;;;;;;;;5063492;28;20560;-58
2022/05/18 04:30:34;;;;;;;5.32;2.40;;;;;;;;;;5068125;28;20028;-59
2022/05/18 04:33:01;;;;;;;5.22;2.67;;;;;;;;;;5063355;28;20056;-59
2022/05/18 04:35:28;;;;;;;6.35;2.53;;;;;;;;;;5048464;28;20049;-59
2022/05/18 04:37:54;;;;;;;4.78;2.15;;;;;;;;;;5056168;28;20043;-58
2022/05/18 04:40:21;;;;;;;7.07;2.78;;;;;;;;;;5051009;28;20107;-59
2022/05/18 04:42:47;;;;;;;6.15;2.60;;;;;;;;;;5052337;28;20112;-58
2022/05/18 04:45:14;;;;;;;6.65;2.28;;;;;;;;;;5067581;28;20099;-59
2022/05/18 04:47:40;;;;;;;4.78;2.30;;;;;;;;;;5063709;28;20031;-56
2022/05/18 04:50:07;;;;;;;4.93;1.92;;;;;;;;;;5056132;28;20112;-57
2022/05/18 04:52:33;;;;;;;7.32;2.60;;;;;;;;;;5062769;28;20025;-58
2022/05/18 04:54:59;;;;;;;5.47;2.35;;;;;;;;;;5057458;28;20111;-56
2022/05/18 04:57:25;;;;;;;5.65;2.75;;;;;;;;;;5065811;28;20435;-58
2022/05/18 04:59:52;;;;;;;5.90;2.88;;;;;;;;;;5056643;28;20029;-58
2022/05/18 05:02:18;;;;;;;3.55;1.90;;;;;;;;;;5066644;28;20027;-59
2022/05/18 05:04:44;;;;;;;4.85;2.35;;;;;;;;;;5059256;28;20104;-58
2022/05/18 05:07:10;;;;;;;5.15;2.47;;;;;;;;;;5047602;28;20036;-59
2022/05/18 05:09:37;;;;;;;11.35;3.38;;;;;;;;;;5059714;28;20082;-57
2022/05/18 05:12:03;;;;;;;6.22;3.35;;;;;;;;;;5047481;28;20545;-56
2022/05/18 05:14:29;;;;;;;11.85;4.15;;;;;;;;;;5065864;28;20672;-58
2022/05/18 05:16:55;;;;;;;7.63;3.60;;;;;;;;;;5047882;28;20111;-57
2022/05/18 05:19:21;;;;;;;6.28;2.92;;;;;;;;;;5064507;28;20070;-58
2022/05/18 05:21:47;;;;;;;15.38;4.15;;;;;;;;;;5067533;28;20028;-58
2022/05/18 05:24:14;;;;;;;12.27;4.03;;;;;;;;;;5066794;28;20128;-58
2022/05/18 05:26:41;;;;;;;13.63;4.85;;;;;;;;;;5052437;28;20035;-57
2022/05/18 05:29:08;;;;;;;13.90;5.53;;;;;;;;;;5052685;28;20046;-59
2022/05/18 05:31:34;;;;;;;14.30;5.05;;;;;;;;;;5060067;28;20036;-58
2022/05/18 05:34:00;;;;;;;11.00;4.97;;;;;;;;;;5063453;28;20064;-58
2022/05/18 05:36:26;;;;;;;12.10;5.10;;;;;;;;;;5066191;28;20028;-57
2022/05/18 05:38:52;;;;;;;14.52;5.18;;;;;;;;;;5066205;28;20098;-59
2022/05/18 05:41:19;;;;;;;12.85;5.38;;;;;;;;;;5050390;28;20037;-58
2022/05/18 05:43:45;;;;;;;11.88;5.25;;;;;;;;;;5047955;28;20415;-59
2022/05/18 05:46:14;;;;;;;11.43;5.30;;;;;;;;;;5056433;28;20051;-58
2022/05/18 05:48:41;;;;;;;8.48;5.75;;;;;;;;;;5064313;28;20068;-59
2022/05/18 05:51:11;;;;;;;13.65;5.80;;;;;;;;;;5062120;28;20161;-58
2022/05/18 05:53:37;;;;;;;;;;;;;;;;;;5062378;28;20033;-60
2022/05/18 05:56:04;;;;;;;15.57;5.57;;;;;;;;;;5059676;28;19915;-58
2022/05/18 05:58:33;;;;;;;23.42;7.07;;;;;;;;;;5062443;28;20556;-58
2022/05/18 06:00:59;;;;;;;14.57;5.53;;;;;;;;;;5061600;28;20048;-59
2022/05/18 06:03:25;;;;;;;10.98;6.10;;;;;;;;;;5060212;28;20105;-58
2022/05/18 06:05:52;;;;;;;10.88;5.78;;;;;;;;;;5065089;28;20036;-56
2022/05/18 06:08:18;;;;;;;12.38;6.20;;;;;;;;;;5054020;28;20104;-56
2022/05/18 06:10:44;;;;;;;9.55;4.93;;;;;;;;;;5058988;28;20055;-58
2022/05/18 06:13:12;;;;;;;13.60;6.07;;;;;;;;;;5056124;28;20030;-58
2022/05/18 06:15:38;;;;;;;11.27;5.80;;;;;;;;;;5056030;28;20020;-58
2022/05/18 06:18:04;;;;;;;14.85;6.10;;;;;;;;;;5058780;28;20079;-56
2022/05/18 06:20:30;;;;;;;20.23;6.05;;;;;;;;;;5067422;28;20387;-58
2022/05/18 06:23:02;;;;;;;14.93;6.03;;;;;;;;;;5057890;28;20471;-56
2022/05/18 06:25:28;;;;;;;19.20;5.82;;;;;;;;;;5053228;28;20074;-58
2022/05/18 06:27:55;;;;;;;28.50;6.55;;;;;;;;;;5070320;28;20136;-57
2022/05/18 06:30:22;;;;;;;20.48;6.68;;;;;;;;;;5069335;28;20062;-59
2022/05/18 06:32:48;;;;;;;19.10;6.57;;;;;;;;;;5061749;28;20107;-58
2022/05/18 06:35:14;;;;;;;36.55;8.25;;;;;;;;;;5060943;28;20047;-59
2022/05/18 06:37:40;;;;;;;23.65;6.97;;;;;;;;;;5064057;28;20036;-57
2022/05/18 06:40:07;;;;;;;18.25;8.07;;;;;;;;;;5062521;28;20056;-58
2022/05/18 06:42:33;;;;;;;30.75;8.02;;;;;;;;;;5057557;28;20113;-57
2022/05/18 06:45:00;;;;;;;31.33;7.78;;;;;;;;;;5065773;28;20013;-59
2022/05/18 06:47:26;;;;;;;20.77;7.72;;;;;;;;;;5062962;28;20367;-56
2022/05/18 06:49:53;;;;;;;23.40;7.20;;;;;;;;;;5060678;28;20103;-59
2022/05/18 06:52:19;;;;;;;18.73;6.47;;;;;;;;;;5063457;28;20021;-59
2022/05/18 06:54:45;;;;;;;19.73;7.00;;;;;;;;;;5058171;28;20077;-58
2022/05/18 06:57:11;;;;;;;15.60;7.22;;;;;;;;;;5064136;28;20033;-60
2022/05/18 06:59:37;;;;;;;24.02;7.93;;;;;;;;;;5062524;28;20036;-60
2022/05/18 07:02:04;;;;;;;15.55;6.65;;;;;;;;;;5062006;28;20029;-59
2022/05/18 07:04:30;;;;;;;12.80;6.68;;;;;;;;;;5061596;28;20119;-59
2022/05/18 07:06:57;;;;;;;18.17;7.82;;;;;;;;;;5058220;28;20431;-59
2022/05/18 07:09:24;;;;;;;19.00;6.88;;;;;;;;;;5062788;28;20063;-60
2022/05/18 07:11:50;;;;;;;12.73;5.90;;;;;;;;;;5059677;28;20100;-60
2022/05/18 07:14:19;;;;;;;15.45;6.25;;;;;;;;;;5068662;28;20029;-60
2022/05/18 07:16:46;;;;;;;16.75;6.57;;;;;;;;;;5058127;28;20025;-59
2022/05/18 07:19:13;;;;;;;14.48;6.63;;;;;;;;;;5061474;28;20059;-59
2022/05/18 07:21:39;;;;;;;12.52;6.72;;;;;;;;;;5057942;28;20037;-59
2022/05/18 07:24:05;;;;;;;18.95;6.88;;;;;;;;;;5061411;28;20112;-59
2022/05/18 07:26:32;;;;;;;12.02;7.45;;;;;;;;;;5059769;28;20024;-59
2022/05/18 07:28:58;;;;;;;15.70;6.80;;;;;;;;;;5060014;28;20115;-59
2022/05/18 07:31:25;;;;;;;19.55;6.63;;;;;;;;;;5059852;28;20025;-59
2022/05/18 07:33:51;;;;;;;14.88;6.85;;;;;;;;;;5063321;28;20489;-59
2022/05/18 07:36:18;;;;;;;15.73;6.75;;;;;;;;;;5058945;28;20025;-59
2022/05/18 07:38:44;;;;;;;14.68;8.15;;;;;;;;;;5058290;28;20045;-59
2022/05/18 07:41:11;;;;;;;14.40;8.80;;;;;;;;;;5061123;28;20112;-59
2022/05/18 07:43:38;;;;;;;24.58;9.23;;;;;;;;;;5061599;28;20119;-59
2022/05/18 07:46:05;;;;;;;16.05;8.75;;;;;;;;;;5060582;28;20577;-59
2022/05/18 07:48:31;;;;;;;14.80;9.68;;;;;;;;;;5062440;28;20120;-59
2022/05/18 07:51:00;;;;;;;16.63;9.18;;;;;;;;;;5065823;28;20029;-59
2022/05/18 07:53:27;;;;;;;14.00;8.90;;;;;;;;;;5061443;28;20094;-59
2022/05/18 07:55:53;;;;;;;19.58;10.98;;;;;;;;;;5043887;28;20389;-59
2022/05/18 07:58:20;;;;;;;13.65;10.48;;;;;;;;;;5060103;28;20036;-59
2022/05/18 08:00:47;;;;;;;19.92;10.95;;;;;;;;;;5062172;28;20359;-60
2022/05/18 08:03:13;;;;;;;19.77;11.52;;;;;;;;;;5059824;28;20038;-57
2022/05/18 08:05:40;;;;;;;14.48;10.05;;;;;;;;;;5062404;28;20013;-59
2022/05/18 08:08:07;;;;;;;16.88;11.57;;;;;;;;;;5057329;28;20107;-59
2022/05/18 08:16:03;;;;;;;17.70;12.65;;;;;;;;;;5061406;28;20090;-60
2022/05/18 08:18:29;;;;;;;19.20;11.68;;;;;;;;;;5058797;28;20035;-59
2022/05/18 08:20:55;;;;;;;20.33;11.77;;;;;;;;;;5062059;28;20028;-59
2022/05/18 08:23:21;;;;;;;15.95;11.02;;;;;;;;;;5057374;28;20036;-59
2022/05/18 08:25:47;;;;;;;17.00;11.55;;;;;;;;;;5065297;28;20048;-60
2022/05/18 08:28:14;;;;;;;21.80;12.25;;;;;;;;;;5060492;28;20067;-59
2022/05/18 08:30:42;;;;;;;23.88;12.25;;;;;;;;;;5062722;28;20044;-59
2022/05/18 08:33:08;;;;;;;18.58;11.75;;;;;;;;;;5059624;28;20021;-59
2022/05/18 08:35:35;;;;;;;20.42;14.50;;;;;;;;;;5059945;28;20076;-57
2022/05/18 08:38:01;;;;;;;19.88;12.57;;;;;;;;;;5061050;28;20131;-58
2022/05/18 08:40:27;;;;;;;18.75;12.52;;;;;;;;;;5064586;28;20095;-59
2022/05/18 08:42:53;;;;;;;16.70;11.68;;;;;;;;;;5062897;28;20187;-60
2022/05/18 08:45:19;;;;;;;16.17;12.68;;;;;;;;;;5058832;28;20075;-59
2022/05/18 08:47:52;;;;;;;19.40;13.75;;;;;;;;;;5058867;28;20039;-59
2022/05/18 08:50:20;;;;;;;19.95;13.75;;;;;;;;;;5060154;28;20027;-58
2022/05/18 08:53:04;;;;;;;19.38;14.45;;;;;;;;;;5058374;28;20025;-60
2022/05/18 08:55:41;;;;;;;18.80;13.70;;;;;;;;;;5057656;28;20021;-58
2022/05/18 08:58:12;;;;;;;19.63;13.05;;;;;;;;;;5057157;28;20028;-59
2022/05/18 09:00:41;;;;;;;18.95;12.63;;;;;;;;;;5056645;28;20024;-59
2022/05/18 09:03:16;;;;;;;19.95;15.23;;;;;;;;;;5060318;28;20368;-58
2022/05/18 09:05:54;;;;;;;21.63;14.60;;;;;;;;;;5056088;28;20220;-59
2022/05/18 09:08:32;;;;;;;18.08;13.43;;;;;;;;;;5057534;28;20051;-59
2022/05/18 09:11:03;;;;;;;17.55;12.88;;;;;;;;;;5060672;28;20186;-57
2022/05/18 09:13:30;;;;;;;17.55;13.50;;;;;;;;;;5056581;28;20049;-59
2022/05/18 09:15:56;;;;;;;17.10;12.35;;;;;;;;;;5058695;28;20040;-57
2022/05/18 09:18:33;;;;;;;18.70;12.75;;;;;;;;;;5061352;28;20036;-59
2022/05/18 09:21:15;;;;;;;19.38;12.20;;;;;;;;;;5060103;28;20044;-59
2022/05/18 09:24:01;;;;;;;17.85;12.40;;;;;;;;;;5060232;28;20024;-58
2022/05/18 09:26:34;;;;;;;21.63;12.30;;;;;;;;;;5058028;28;20881;-59
2022/05/18 09:29:24;;;;;;;21.02;13.52;;;;;;;;;;5064493;28;20565;-59
2022/05/18 09:32:01;;;;;;;18.08;12.40;;;;;;;;;;5039317;28;20029;-59
2022/05/18 09:34:36;;;;;;;16.50;11.55;;;;;;;;;;5056667;28;20041;-59
2022/05/18 09:37:02;;;;;;;17.40;13.10;;;;;;;;;;5052759;28;20051;-59
2022/05/18 09:39:31;;;;;;;18.92;13.55;;;;;;;;;;5063276;28;21057;-59
2022/05/18 09:41:59;;;;;;;18.92;11.65;;;;;;;;;;5051977;28;20151;-59
2022/05/18 09:44:31;;;;;;;16.50;11.68;;;;;;;;;;5070334;28;20031;-60
2022/05/18 09:46:57;;;;;;;18.25;11.55;;;;;;;;;;5070246;28;20033;-58
2022/05/18 09:49:30;;;;;;;14.90;12.38;;;;;;;;;;5059812;28;20525;-58
2022/05/18 09:51:58;;;;;;;17.27;12.88;;;;;;;;;;5069898;28;20032;-59
2022/05/18 09:54:24;;;;;;;20.63;11.70;;;;;;;;;;5059749;28;20049;-63
2022/05/18 09:56:53;;;;;;;16.30;10.52;;;;;;;;;;5070768;28;20520;-57
2022/05/18 09:59:22;;;;;;;22.08;11.15;;;;;;;;;;5069066;28;20052;-59
2022/05/18 10:07:34;;;;;;;15.32;10.38;;;;;;;;;;5061346;28;20497;-59
2022/05/18 10:10:21;;;;;;;13.50;9.48;;;;;;;;;;5070137;28;20020;-59
2022/05/18 10:12:49;;;;;;;13.27;9.82;;;;;;;;;;5069429;28;20035;-59
2022/05/18 10:15:22;;;;;;;19.02;9.82;;;;;;;;;;5070367;28;20032;-58
2022/05/18 10:18:08;;;;;;;12.40;9.00;;;;;;;;;;5069771;28;20115;-58
2022/05/18 10:20:35;;;;;;;14.23;8.95;;;;;;;;;;5061394;28;20159;-59
2022/05/18 10:23:02;;;;;;;15.55;8.55;;;;;;;;;;5069702;28;20070;-58
2022/05/18 10:25:33;;;;;;;16.63;9.02;;;;;;;;;;5060190;28;20087;-60
2022/05/18 10:28:02;;;;;;;14.57;9.10;;;;;;;;;;5060604;28;20108;-58
2022/05/18 10:30:32;;;;;;;19.73;9.65;;;;;;;;;;5065400;28;20047;-59
2022/05/18 10:33:04;;;;;;;21.57;9.67;;;;;;;;;;5062949;28;20474;-59
2022/05/18 10:35:32;;;;;;;13.88;8.40;;;;;;;;;;5058487;28;20045;-59
2022/05/18 10:38:02;;;;;;;15.02;8.52;;;;;;;;;;5064115;28;20463;-59
2022/05/18 10:40:28;;;;;;;15.27;8.32;;;;;;;;;;5059555;28;20486;-59
2022/05/18 10:42:56;;;;;;;13.45;8.13;;;;;;;;;;5061529;28;20020;-60
2022/05/18 10:45:28;;;;;;;12.98;7.65;;;;;;;;;;5065190;28;20127;-59
2022/05/18 10:47:56;;;;;;;13.98;8.30;;;;;;;;;;5065424;28;20104;-60
2022/05/18 10:50:24;;;;;;;11.68;7.40;;;;;;;;;;5059002;28;20100;-59
2022/05/18 10:52:55;;;;;;;13.48;8.25;;;;;;;;;;5063821;28;20230;-60
2022/05/18 10:55:23;;;;;;;13.30;6.88;;;;;;;;;;5062198;28;20439;-59
2022/05/18 10:57:55;;;;;;;13.07;7.70;;;;;;;;;;5056838;28;20577;-60
2022/05/18 11:00:23;;;;;;;11.88;6.78;;;;;;;;;;5064703;28;20538;-60
2022/05/18 11:02:56;;;;;;;15.82;7.53;;;;;;;;;;5056985;28;20525;-59
2022/05/18 11:05:37;;;;;;;20.17;7.13;;;;;;;;;;5061946;28;20024;-58
2022/05/18 11:08:07;;;;;;;13.90;6.15;;;;;;;;;;5059406;28;20445;-57
2022/05/18 11:10:39;;;;;;;16.63;6.88;;;;;;;;;;5063185;28;20558;-59
2022/05/18 11:13:10;;;;;;;15.32;7.13;;;;;;;;;;5061966;28;20025;-59
2022/05/18 11:15:39;;;;;;;15.93;7.35;;;;;;;;;;5061969;28;20111;-60
2022/05/18 11:18:18;;;;;;;10.82;7.95;;;;;;;;;;5062645;28;20581;-60
2022/05/18 11:20:44;;;;;;;12.00;6.97;;;;;;;;;;5059995;28;20037;-60
2022/05/18 11:23:36;;;;;;;10.02;6.93;;;;;;;;;;5063816;28;20020;-59
2022/05/18 11:26:11;;;;;;;12.55;6.53;;;;;;;;;;5046438;28;20120;-60
2022/05/18 11:28:45;;;;;;;10.95;7.15;;;;;;;;;;5062741;28;20082;-59
2022/05/18 11:31:26;;;;;;;12.88;7.50;;;;;;;;;;5064965;28;20070;-57
2022/05/18 11:34:14;;;;;;;13.18;6.75;;;;;;;;;;5056884;28;20068;-60
2022/05/18 11:36:46;;;;;;;12.93;7.70;;;;;;;;;;5064238;28;20099;-61
2022/05/18 11:39:21;;;;;;;13.00;7.20;;;;;;;;;;5055007;28;20128;-60
2022/05/18 11:42:00;;;;;;;15.27;7.93;;;;;;;;;;5058184;28;20103;-59
2022/05/18 11:44:33;;;;;;;12.65;7.82;;;;;;;;;;5064180;28;20121;-59
2022/05/18 11:46:59;;;;;;;11.73;6.97;;;;;;;;;;5059041;28;20836;-58
2022/05/18 11:49:40;;;;;;;17.77;8.23;;;;;;;;;;5059303;28;20025;-58
2022/05/18 11:52:19;;;;;;;17.92;7.88;;;;;;;;;;5063416;28;20108;-58
2022/05/18 11:54:53;;;;;;;11.53;6.63;;;;;;;;;;5067350;28;20024;-59
2022/05/18 11:57:25;;;;;;;12.23;7.10;;;;;;;;;;5067029;28;20107;-59
2022/05/18 11:59:54;;;;;;;10.82;7.18;;;;;;;;;;5066049;28;20059;-59
2022/05/18 12:02:29;;;;;;;10.20;7.53;;;;;;;;;;5060824;28;20036;-59
2022/05/18 12:05:14;;;;;;;10.45;6.38;;;;;;;;;;5061550;28;20024;-57
2022/05/18 12:07:48;;;;;;;10.60;6.93;;;;;;;;;;5062923;28;20025;-59
2022/05/18 12:10:21;;;;;;;13.45;6.78;;;;;;;;;;5059420;28;20075;-59
2022/05/18 12:12:47;;;;;;;11.15;6.65;;;;;;;;;;5057978;28;20024;-59
2022/05/18 12:15:16;;;;;;;11.27;6.38;;;;;;;;;;5059720;28;20476;-59
2022/05/18 12:17:42;;;;;;;9.68;5.50;;;;;;;;;;5057606;28;20094;-59
2022/05/18 12:20:13;;;;;;;12.25;6.25;;;;;;;;;;5061678;28;20475;-60
2022/05/18 12:22:41;;;;;;;12.43;6.05;;;;;;;;;;5062827;28;20040;-58
2022/05/18 12:25:08;;;;;;;9.63;5.72;;;;;;;;;;5060006;28;20057;-59
2022/05/18 12:27:34;;;;;;;10.50;6.70;;;;;;;;;;5056385;28;20112;-60
2022/05/18 12:30:02;;;;;;;10.25;5.78;;;;;;;;;;5059935;28;20021;-60
2022/05/18 12:32:28;;;;;;;11.93;5.70;;;;;;;;;;5066147;28;20750;-59
2022/05/18 12:34:54;;;;;;;12.40;6.38;;;;;;;;;;5065947;28;20128;-59
2022/05/18 12:37:25;;;;;;;11.45;5.40;;;;;;;;;;5068961;28;20119;-59
2022/05/18 12:40:04;;;;;;;10.18;5.35;;;;;;;;;;5061557;28;20037;-59
2022/05/18 12:42:30;;;;;;;8.93;5.00;;;;;;;;;;5063437;28;20837;-59
2022/05/18 12:45:10;;;;;;;11.10;6.03;;;;;;;;;;5063504;28;20598;-59
2022/05/18 12:47:36;;;;;;;;;;;;;;;;;;5068141;28;20029;-59
2022/05/18 12:50:04;;;;;;;9.95;5.20;;;;;;;;;;5061312;28;19911;-58
2022/05/18 12:52:45;;;;;;;15.30;5.97;;;;;;;;;;5061523;28;20025;-59
2022/05/18 12:55:30;;;;;;;9.57;5.20;;;;;;;;;;5065098;28;20044;-59
2022/05/18 12:58:11;;;;;;;13.93;4.50;;;;;;;;;;5068657;28;20093;-59
2022/05/18 13:00:52;;;;;;;8.70;4.72;;;;;;;;;;5056407;28;20432;-59
2022/05/18 13:03:18;;;;;;;9.52;3.95;;;;;;;;;;5069578;28;20534;-59
2022/05/18 13:05:47;;;;;;;8.27;4.70;;;;;;;;;;5063986;28;20021;-59
2022/05/18 13:08:17;;;;;;;7.60;4.20;;;;;;;;;;5052379;28;20086;-59
2022/05/18 13:11:02;;;;;;;12.68;3.85;;;;;;;;;;5064577;28;20483;-58
2022/05/18 13:13:28;;;;;;;10.65;4.53;;;;;;;;;;5052560;28;20731;-59
2022/05/18 13:15:56;;;;;;;7.40;3.17;;;;;;;;;;5066782;28;20032;-59
2022/05/18 13:18:30;;;;;;;6.22;3.58;;;;;;;;;;5070892;28;20498;-59
2022/05/18 13:21:05;;;;;;;10.68;3.80;;;;;;;;;;5058602;28;20087;-59
2022/05/18 13:23:31;;;;;;;8.23;3.90;;;;;;;;;;5072124;28;20035;-57
2022/05/18 13:26:10;;;;;;;7.65;3.22;;;;;;;;;;5066447;28;20028;-59
2022/05/18 13:28:38;;;;;;;6.90;3.07;;;;;;;;;;5067650;28;20036;-58
2022/05/18 13:31:05;;;;;;;9.25;3.03;;;;;;;;;;5067594;28;20017;-59
2022/05/18 13:33:38;;;;;;;7.75;3.75;;;;;;;;;;5051764;28;20554;-61
2022/05/18 13:36:04;;;;;;;9.82;3.50;;;;;;;;;;5063063;28;20095;-58
2022/05/18 13:38:32;;;;;;;10.20;3.53;;;;;;;;;;5052636;28;20098;-59
2022/05/18 13:41:07;;;;;;;8.68;3.45;;;;;;;;;;5056087;28;20017;-59
2022/05/18 13:43:34;;;;;;;7.07;3.45;;;;;;;;;;5068037;28;20017;-59
2022/05/18 13:46:03;;;;;;;7.80;3.10;;;;;;;;;;5065780;28;20048;-58
2022/05/18 13:48:29;;;;;;;9.90;3.67;;;;;;;;;;5053533;28;20025;-59
2022/05/18 13:50:55;;;;;;;7.43;3.10;;;;;;;;;;5054162;28;20052;-59
2022/05/18 13:53:23;;;;;;;6.20;3.08;;;;;;;;;;5063229;28;20186;-59
2022/05/18 13:55:50;;;;;;;7.40;3.53;;;;;;;;;;5066221;28;20104;-59
2022/05/18 13:58:20;;;;;;;5.95;3.15;;;;;;;;;;5058654;28;20931;-58
2022/05/18 14:00:46;;;;;;;;;;;;;;;;;;5051956;28;20064;-57
2022/05/18 14:03:17;;;;;;;6.80;3.05;;;;;;;;;;5060619;28;19940;-59
2022/05/18 14:05:43;;;;;;;6.82;2.50;;;;;;;;;;5066442;28;20022;-59
2022/05/18 14:08:30;;;;;;;5.40;2.63;;;;;;;;;;5060813;28;20032;-59
2022/05/18 14:10:58;;;;;;;6.00;2.70;;;;;;;;;;5053477;28;20565;-60
2022/05/18 14:13:24;;;;;;;5.68;2.42;;;;;;;;;;5059961;28;20044;-59
2022/05/18 14:15:51;;;;;;;7.10;2.78;;;;;;;;;;5070447;28;20111;-59
2022/05/18 14:18:19;;;;;;;6.35;2.50;;;;;;;;;;5062191;28;20086;-59
2022/05/18 14:20:49;;;;;;;4.88;2.55;;;;;;;;;;5051643;28;20118;-59
2022/05/18 14:23:28;;;;;;;7.30;2.78;;;;;;;;;;5058541;28;20395;-59
2022/05/18 14:25:55;;;;;;;5.78;3.08;;;;;;;;;;5063313;28;20489;-59
2022/05/18 14:28:27;;;;;;;8.45;2.65;;;;;;;;;;5063887;28;20059;-59
2022/05/18 14:30:54;;;;;;;7.20;2.60;;;;;;;;;;5062581;28;20032;-59
2022/05/18 14:33:37;;;;;;;10.05;2.92;;;;;;;;;;5063956;28;20122;-58
2022/05/18 14:36:06;;;;;;;6.13;2.67;;;;;;;;;;5063972;28;20043;-59
2022/05/18 14:38:34;;;;;;;9.05;3.53;;;;;;;;;;5063980;28;20159;-58
2022/05/18 14:41:03;;;;;;;8.13;3.10;;;;;;;;;;5063464;28;20047;-59
2022/05/18 14:43:32;;;;;;;7.90;3.13;;;;;;;;;;5063436;28;20078;-59
2022/05/18 14:46:21;;;;;;;8.30;2.73;;;;;;;;;;5063933;28;20474;-58
2022/05/18 14:48:50;;;;;;;9.73;2.92;;;;;;;;;;5062470;28;20724;-59
2022/05/18 14:51:20;;;;;;;8.30;2.80;;;;;;;;;;5054482;28;20020;-59
2022/05/18 14:53:54;;;;;;;4.70;2.88;;;;;;;;;;5063929;28;20496;-58
2022/05/18 14:56:21;;;;;;;8.05;3.10;;;;;;;;;;5063809;28;20154;-59
2022/05/18 14:58:48;;;;;;;6.38;3.08;;;;;;;;;;5061721;28;20528;-59
2022/05/18 15:01:32;;;;;;;8.27;3.63;;;;;;;;;;5063686;28;20032;-58
2022/05/18 15:04:03;;;;;;;10.35;3.22;;;;;;;;;;5063482;28;20034;-59